Time;durP1;ratioP1;P1;durP2;ratioP2;P2;SDS_P1;SDS_P2;PMS_P1;PMS_P2;Temp;Humidity;BMP_temperature;BMP_pressure;BME280_temperature;BME280_humidity;BME280_pressure;Samples;Min_cycle;Max_cycle;Signal;HPM_P1;HPM_P2
2023/04/08 00:00:49;;;;;;;8.87;7.90;;;;;;;4.24;70.18;97716.44;6139631;28;20365;-89
2023/04/08 00:03:51;;;;;;;10.27;8.27;;;;;;;4.23;70.71;97713.97;6155186;28;20304;-89
2023/04/08 00:06:55;;;;;;;8.63;7.70;;;;;;;3.55;72.38;97633.16;6133515;28;20746;-89
2023/04/08 00:09:57;;;;;;;7.87;6.83;;;;;;;2.85;71.86;97521.13;6136714;28;20234;-89
2023/04/08 00:12:59;;;;;;;11.10;8.10;;;;;;;3.42;72.38;97627.03;6138843;28;20310;-89
2023/04/08 00:16:02;;;;;;;10.57;7.80;;;;;;;3.81;73.16;97671.13;6135892;28;20600;-89
2023/04/08 00:19:05;;;;;;;9.50;8.37;;;;;;;3.47;73.53;97630.69;6123553;28;20355;-89
2023/04/08 00:22:07;;;;;;;8.97;8.07;;;;;;;2.68;73.93;97498.81;6134484;28;20786;-89
2023/04/08 00:25:09;;;;;;;10.47;8.47;;;;;;;3.48;74.48;97628.88;6126789;28;20261;-89
2023/04/08 00:28:11;;;;;;;10.43;8.77;;;;;;;4.01;75.02;97716.78;6129312;28;20238;-90
2023/04/08 00:31:14;;;;;;;12.93;11.17;;;;;;;3.94;78.87;97707.22;6118650;28;20325;-90
2023/04/08 00:34:16;;;;;;;13.90;10.70;;;;;;;2.14;78.55;97429.38;6134548;28;20238;-90
2023/04/08 00:37:18;;;;;;;14.33;10.77;;;;;;;2.60;78.91;97536.59;6129883;28;20381;-89
2023/04/08 00:40:20;;;;;;;11.73;10.53;;;;;;;3.19;78.54;97654.47;6134195;28;20748;-90
2023/04/08 00:43:22;;;;;;;12.37;9.47;;;;;;;3.30;78.59;97624.13;6118031;28;20242;-90
2023/04/08 00:46:25;;;;;;;14.70;11.53;;;;;;;3.50;78.64;97669.00;6135542;28;20612;-90
2023/04/08 00:49:29;;;;;;;14.53;10.77;;;;;;;3.24;78.80;97631.00;6130708;28;20596;-90
2023/04/08 00:52:31;;;;;;;13.47;11.13;;;;;;;2.20;79.52;97491.69;6130416;28;20238;-91
2023/04/08 00:55:34;;;;;;;13.50;10.90;;;;;;;2.16;79.37;97463.34;6119141;28;20626;-90
2023/04/08 00:58:37;;;;;;;15.20;13.60;;;;;;;2.19;79.08;97495.31;6113580;28;20238;-90
2023/04/08 01:01:49;;;;;;;18.00;14.20;;;;;;;3.87;79.89;97744.09;6128333;28;20241;-90
2023/04/08 01:05:12;;;;;;;19.70;17.30;;;;;;;2.54;79.80;97532.91;6133789;28;20281;-90
2023/04/08 01:08:16;;;;;;;17.27;15.20;;;;;;;3.20;79.82;97655.28;6128178;28;20227;-91
2023/04/08 01:11:20;;;;;;;18.13;15.33;;;;;;;3.23;79.58;97679.38;6129436;28;20611;-89
2023/04/08 01:14:25;;;;;;;19.10;16.33;;;;;;;2.91;79.45;97622.16;6121370;28;20223;-91
2023/04/08 01:17:30;;;;;;;17.23;15.13;;;;;;;1.75;79.31;97451.78;6118514;28;20282;-89
2023/04/08 01:20:33;;;;;;;18.60;14.70;;;;;;;3.23;79.55;97708.34;6117843;28;20740;-91
2023/04/08 01:24:17;;;;;;;20.47;15.30;;;;;;;3.61;79.61;97732.44;6150186;28;20226;-92
2023/04/08 01:27:20;;;;;;;17.30;13.83;;;;;;;2.75;79.82;97604.84;6088535;29;20231;-91
2023/04/08 01:30:24;;;;;;;19.20;15.33;;;;;;;1.42;80.25;97385.09;6124668;29;20223;-92
2023/04/08 01:33:28;;;;;;;17.83;15.43;;;;;;;1.65;79.92;97446.06;6108625;29;20309;-90
2023/04/08 01:36:31;;;;;;;15.93;13.43;;;;;;;2.78;79.88;97621.06;6107145;29;20238;-91
2023/04/08 01:39:35;;;;;;;15.13;13.40;;;;;;;2.92;80.16;97668.50;6108582;29;20228;-91
2023/04/08 01:42:37;;;;;;;14.73;12.73;;;;;;;1.74;80.25;97480.88;6108141;29;20322;-91
2023/04/08 01:45:40;;;;;;;15.20;13.27;;;;;;;3.28;80.90;97716.47;6108260;29;20278;-90
2023/04/08 01:48:43;;;;;;;13.57;11.93;;;;;;;1.26;80.96;97399.31;6108414;29;20234;-91
2023/04/08 01:51:47;;;;;;;13.03;11.00;;;;;;;2.71;81.56;97672.81;6107785;29;20229;-90
2023/04/08 01:54:49;;;;;;;14.07;11.70;;;;;;;1.50;81.75;97498.63;6108002;29;20229;-92
2023/04/08 01:57:53;;;;;;;12.77;11.03;;;;;;;1.18;81.67;97465.84;6107515;29;20727;-92
2023/04/08 02:00:56;;;;;;;13.50;11.07;;;;;;;2.28;82.28;97656.31;6121926;28;20285;-90
2023/04/08 02:04:00;;;;;;;10.77;9.63;;;;;;;2.82;82.67;97767.00;6101814;28;20361;-89
2023/04/08 02:07:04;;;;;;;8.13;7.23;;;;;;;-0.24;82.23;97307.47;6116883;28;20230;-91
2023/04/08 02:10:07;;;;;;;8.77;7.83;;;;;;;1.93;82.76;97608.91;6132737;28;20234;-90
2023/04/08 02:13:09;;;;;;;10.70;8.87;;;;;;;2.40;83.44;97691.56;6101282;28;20233;-91
2023/04/08 02:16:33;;;;;;;8.97;8.03;;;;;;;2.67;83.17;97742.59;6100287;28;20612;-90
2023/04/08 02:19:55;;;;;;;8.03;7.23;;;;;;;1.99;83.24;97641.50;6099016;28;20235;-90
2023/04/08 02:23:21;;;;;;;6.97;6.27;;;;;;;2.64;83.65;97742.94;6142594;28;20250;-91
2023/04/08 02:26:24;;;;;;;7.67;6.87;;;;;;;1.34;83.50;97542.72;6114182;28;20292;-90
2023/04/08 02:29:32;;;;;;;7.50;5.77;;;;;;;1.95;83.56;97653.38;6131972;28;20901;-90
2023/04/08 02:32:35;;;;;;;6.33;5.67;;;;;;;0.68;83.29;97459.66;6123671;28;20287;-90
2023/04/08 02:35:40;;;;;;;7.67;6.70;;;;;;;2.45;83.21;97754.91;6132636;28;20329;-90
2023/04/08 02:38:47;;;;;;;6.10;4.83;;;;;;;0.13;83.09;97394.72;6131715;28;20230;-89
2023/04/08 02:41:50;;;;;;;5.73;4.90;;;;;;;0.15;82.82;97390.13;6132168;28;20238;-90
2023/04/08 02:44:56;;;;;;;6.23;5.13;;;;;;;1.73;82.74;97656.00;6112056;28;20341;-90
2023/04/08 02:48:00;;;;;;;6.60;5.30;;;;;;;1.86;82.97;97720.97;6099506;28;20348;-90
2023/04/08 02:51:02;;;;;;;5.47;4.90;;;;;;;1.91;83.21;97717.78;6121179;28;20236;-90
2023/04/08 02:54:04;;;;;;;5.37;4.87;;;;;;;0.60;83.24;97519.28;6116180;28;20221;-90
2023/04/08 02:57:06;;;;;;;5.13;4.63;;;;;;;2.13;83.12;97758.06;6130304;28;20241;-90
2023/04/08 03:00:09;;;;;;;5.27;4.77;;;;;;;2.06;83.32;97764.03;6130941;28;20374;-89
2023/04/08 03:03:11;;;;;;;5.93;4.83;;;;;;;1.39;83.30;97645.31;6146855;28;20228;-90
2023/04/08 03:06:13;;;;;;;4.80;4.23;;;;;;;0.96;83.45;97609.25;6115178;28;20218;-90
2023/04/08 03:09:15;;;;;;;4.87;4.37;;;;;;;1.45;83.74;97683.94;6115803;28;20566;-90
2023/04/08 03:12:17;;;;;;;5.70;4.93;;;;;;;1.83;83.27;97752.88;6130529;28;20693;-90
2023/04/08 03:15:20;;;;;;;6.80;5.47;;;;;;;0.98;83.67;97625.63;6137247;28;20220;-90
2023/04/08 03:18:22;;;;;;;6.33;5.00;;;;;;;1.80;84.47;97756.66;6130783;28;20235;-90
2023/04/08 03:21:24;;;;;;;5.10;4.60;;;;;;;0.01;84.21;97474.75;6131092;28;20365;-90
2023/04/08 03:24:26;;;;;;;4.90;4.20;;;;;;;0.11;84.25;97507.53;6115529;28;20235;-90
2023/04/08 03:27:28;;;;;;;6.27;4.40;;;;;;;1.71;84.85;97755.13;6122042;28;20232;-90
2023/04/08 03:30:30;;;;;;;5.07;4.30;;;;;;;1.17;84.21;97695.09;6131013;28;20339;-91
2023/04/08 03:33:32;;;;;;;3.93;3.53;;;;;;;0.87;84.21;97660.19;6122823;28;20232;-90
2023/04/08 03:36:34;;;;;;;4.13;3.63;;;;;;;0.67;83.95;97625.00;6115289;28;20226;-90
2023/04/08 03:39:37;;;;;;;3.70;3.40;;;;;;;1.01;83.97;97680.34;6126532;28;20596;-90
2023/04/08 03:42:39;;;;;;;3.83;3.43;;;;;;;0.60;84.48;97618.88;6131326;28;20227;-91
2023/04/08 03:45:41;;;;;;;3.63;3.33;;;;;;;0.23;84.32;97582.03;6122704;28;20635;-90
2023/04/08 03:48:43;;;;;;;3.73;3.40;;;;;;;0.20;84.08;97589.47;6130375;28;20318;-90
2023/04/08 03:51:45;;;;;;;4.03;3.63;;;;;;;0.98;84.28;97714.78;6130936;28;20645;-89
2023/04/08 03:54:47;;;;;;;3.43;3.10;;;;;;;1.20;84.20;97741.97;6126681;28;20231;-90
2023/04/08 03:57:49;;;;;;;3.80;3.40;;;;;;;0.73;84.44;97671.47;6114999;28;20607;-90
2023/04/08 04:00:52;;;;;;;3.80;3.10;;;;;;;1.20;84.23;97743.78;6115300;28;20645;-90
2023/04/08 04:03:54;;;;;;;3.60;3.30;;;;;;;0.10;84.49;97587.09;6159369;28;20239;-90
2023/04/08 04:06:57;;;;;;;3.50;3.20;;;;;;;1.05;84.92;97733.28;6152268;28;20342;-90
2023/04/08 04:09:59;;;;;;;3.57;3.00;;;;;;;1.35;84.97;97791.00;6164831;28;20239;-90
2023/04/08 04:13:01;;;;;;;3.10;2.73;;;;;;;0.68;84.89;97705.28;6148091;28;20579;-90
2023/04/08 04:16:03;;;;;;;3.40;3.10;;;;;;;0.71;85.02;97718.03;6137435;28;20238;-90
2023/04/08 04:19:05;;;;;;;3.03;2.73;;;;;;;1.02;84.98;97750.16;6101003;28;20248;-91
2023/04/08 04:22:07;;;;;;;2.83;2.50;;;;;;;-0.09;85.01;97606.72;6131330;28;20805;-90
2023/04/08 04:25:09;;;;;;;3.40;3.10;;;;;;;1.23;85.05;97795.88;6130628;28;20234;-90
2023/04/08 04:28:12;;;;;;;3.33;2.80;;;;;;;-1.08;84.98;97466.34;6114072;28;20228;-89
2023/04/08 04:31:21;;;;;;;3.03;2.43;;;;;;;1.14;85.31;97805.66;6128867;28;20290;-89
2023/04/08 04:34:23;;;;;;;3.20;2.90;;;;;;;0.58;84.97;97715.19;6137973;28;20252;-90
2023/04/08 04:37:26;;;;;;;2.90;2.60;;;;;;;0.39;85.33;97695.53;6124656;28;20248;-91
2023/04/08 04:40:28;;;;;;;3.10;2.77;;;;;;;1.11;85.28;97821.75;6133935;28;20238;-90
2023/04/08 04:43:30;;;;;;;2.37;2.17;;;;;;;0.32;85.29;97684.16;6130142;28;20440;-91
2023/04/08 04:46:32;;;;;;;2.80;2.60;;;;;;;0.70;85.13;97726.91;6133280;28;20281;-90
2023/04/08 04:49:34;;;;;;;2.63;2.40;;;;;;;0.76;85.45;97740.09;6134598;28;20240;-90
2023/04/08 04:52:37;;;;;;;1.53;1.43;;;;;;;1.24;84.89;97824.59;6134037;28;20326;-91
2023/04/08 04:55:39;;;;;;;2.07;1.87;;;;;;;0.67;84.87;97746.41;6134078;28;20661;-91
2023/04/08 04:58:41;;;;;;;2.53;2.33;;;;;;;1.17;85.09;97812.34;6133694;28;20268;-90
2023/04/08 05:01:43;;;;;;;3.80;3.07;;;;;;;-0.85;85.33;97523.84;6112641;28;20243;-90
2023/04/08 05:04:45;;;;;;;2.00;1.90;;;;;;;0.27;85.25;97694.34;6134255;28;20262;-91
2023/04/08 05:07:47;;;;;;;2.53;2.10;;;;;;;0.94;85.53;97786.19;6134009;28;20226;-90
2023/04/08 05:10:50;;;;;;;2.20;2.00;;;;;;;0.62;85.22;97743.50;6118803;28;20243;-90
2023/04/08 05:13:52;;;;;;;3.73;2.97;;;;;;;0.59;85.38;97745.66;6126331;28;20230;-91
2023/04/08 05:16:54;;;;;;;5.43;4.00;;;;;;;0.63;85.35;97753.00;6125134;28;20231;-91
2023/04/08 05:19:56;;;;;;;4.40;3.27;;;;;;;0.78;85.39;97798.41;6133140;28;20323;-91
2023/04/08 05:22:58;;;;;;;3.70;3.27;;;;;;;0.01;84.86;97656.25;6133566;28;20741;-90
2023/04/08 05:26:00;;;;;;;2.43;2.03;;;;;;;0.71;85.76;97776.53;6125455;28;20244;-90
2023/04/08 05:29:02;;;;;;;1.43;1.33;;;;;;;0.28;85.54;97704.63;6133237;28;20240;-91
2023/04/08 05:32:05;;;;;;;1.60;1.50;;;;;;;0.70;85.42;97785.38;6130067;28;20366;-91
2023/04/08 05:35:08;;;;;;;1.20;1.10;;;;;;;0.91;85.68;97805.69;6141087;28;20302;-91
2023/04/08 05:38:10;;;;;;;1.63;1.50;;;;;;;0.52;85.29;97774.38;6132513;28;20609;-91
2023/04/08 05:41:12;;;;;;;1.90;1.80;;;;;;;0.50;85.19;97760.66;6132075;28;20239;-90
2023/04/08 05:44:14;;;;;;;1.50;1.40;;;;;;;0.72;85.58;97775.53;6133154;28;20704;-91
2023/04/08 05:47:16;;;;;;;1.70;1.40;;;;;;;0.88;85.43;97808.66;6132508;28;20234;-91
2023/04/08 05:50:19;;;;;;;1.80;1.50;;;;;;;1.31;85.60;97865.84;6132352;28;20238;-90
2023/04/08 05:53:21;;;;;;;2.03;1.83;;;;;;;0.69;85.42;97769.81;6132745;28;20239;-90
2023/04/08 05:56:23;;;;;;;1.83;1.70;;;;;;;0.68;85.09;97769.00;6133183;28;20238;-90
2023/04/08 05:59:25;;;;;;;2.20;2.00;;;;;;;0.74;85.55;97793.72;6099709;28;20242;-90
2023/04/08 06:02:27;;;;;;;2.13;1.93;;;;;;;0.99;85.51;97841.53;6116880;29;20258;-91
2023/04/08 06:05:30;;;;;;;1.90;1.80;;;;;;;-0.78;85.47;97579.72;6116787;29;20268;-92
2023/04/08 06:08:32;;;;;;;2.30;2.10;;;;;;;0.21;85.46;97698.47;6116162;29;20247;-89
2023/04/08 06:11:34;;;;;;;2.50;2.30;;;;;;;0.53;85.38;97770.78;6115523;29;20235;-90
2023/04/08 06:14:36;;;;;;;2.80;2.50;;;;;;;0.92;85.68;97856.34;6117790;29;20242;-90
2023/04/08 06:17:38;;;;;;;2.67;2.47;;;;;;;1.35;85.72;97896.00;6116175;29;20246;-90
2023/04/08 06:20:41;;;;;;;2.70;2.50;;;;;;;0.43;85.66;97744.81;6114972;29;20706;-91
2023/04/08 06:23:43;;;;;;;3.30;3.00;;;;;;;1.03;85.80;97854.13;6100665;29;20321;-90
2023/04/08 06:26:46;;;;;;;3.50;3.20;;;;;;;-0.32;85.70;97617.19;6114848;29;20240;-90
2023/04/08 06:29:48;;;;;;;3.90;3.40;;;;;;;0.66;86.19;97764.94;6116581;29;20228;-90
2023/04/08 06:32:50;;;;;;;4.57;4.00;;;;;;;0.97;86.26;97807.59;6123954;29;20756;-90
2023/04/08 06:36:01;;;;;;;4.90;4.10;;;;;;;1.15;85.92;97832.72;6099694;29;20244;-91
2023/04/08 06:39:03;;;;;;;4.37;3.97;;;;;;;0.66;85.95;97757.09;6115270;29;20238;-90
2023/04/08 06:42:06;;;;;;;4.30;3.90;;;;;;;1.37;85.65;97863.31;6114407;29;20215;-90
2023/04/08 06:45:21;;;;;;;4.80;4.30;;;;;;;-0.42;85.20;97597.47;6115402;29;20306;-90
2023/04/08 06:48:29;;;;;;;5.07;4.37;;;;;;;1.06;85.50;97828.53;6125260;29;20238;-91
2023/04/08 06:51:31;;;;;;;5.77;5.17;;;;;;;1.14;85.55;97852.06;6107380;29;20242;-91
2023/04/08 06:54:34;;;;;;;5.20;4.40;;;;;;;0.77;85.44;97778.44;6100169;29;20238;-90
2023/04/08 06:57:36;;;;;;;4.67;4.20;;;;;;;1.24;85.56;97845.56;6124626;28;20270;-90
2023/04/08 07:00:41;;;;;;;5.30;4.67;;;;;;;0.89;85.15;97793.75;6130404;28;20238;-91
2023/04/08 07:03:43;;;;;;;4.70;4.30;;;;;;;1.13;84.88;97835.50;6115978;28;20691;-91
2023/04/08 07:06:45;;;;;;;5.73;5.00;;;;;;;1.37;84.17;97880.88;6130784;28;20633;-91
2023/04/08 07:09:47;;;;;;;5.40;4.90;;;;;;;-0.28;84.36;97649.06;6123933;28;20307;-91
2023/04/08 07:12:51;;;;;;;6.80;5.27;;;;;;;1.70;84.62;97934.72;6131653;28;20237;-91
2023/04/08 07:15:53;;;;;;;5.13;4.63;;;;;;;0.65;85.00;97763.31;6147049;28;20223;-90
2023/04/08 07:18:55;;;;;;;6.30;5.70;;;;;;;1.47;84.96;97887.50;6130244;28;20322;-90
2023/04/08 07:21:57;;;;;;;6.37;5.50;;;;;;;-0.12;84.27;97645.53;6131007;28;20712;-89
2023/04/08 07:24:59;;;;;;;6.13;5.53;;;;;;;1.23;84.70;97877.22;6115536;28;20245;-91
2023/04/08 07:28:01;;;;;;;6.37;5.50;;;;;;;1.46;84.72;97880.63;6111314;28;20597;-90
2023/04/08 07:31:12;;;;;;;6.10;5.47;;;;;;;1.37;84.52;97854.63;6129644;28;20726;-91
2023/04/08 07:34:15;;;;;;;6.60;5.90;;;;;;;2.04;85.05;97934.19;6131233;28;20232;-91
2023/04/08 07:37:17;;;;;;;6.43;5.83;;;;;;;1.03;84.49;97785.94;6124005;28;20237;-92
2023/04/08 07:40:19;;;;;;;7.03;6.17;;;;;;;1.93;84.28;97910.19;6130405;28;20240;-91
2023/04/08 07:43:22;;;;;;;6.40;5.80;;;;;;;0.99;84.14;97786.47;6128902;28;20612;-90
2023/04/08 07:46:24;;;;;;;5.20;4.70;;;;;;;1.77;83.19;97912.00;6145302;28;20334;-90
2023/04/08 07:49:26;;;;;;;6.37;5.53;;;;;;;0.53;83.37;97705.25;6161607;28;20275;-91
2023/04/08 07:52:31;;;;;;;5.97;5.27;;;;;;;1.26;83.57;97814.72;6147319;28;20222;-91
2023/04/08 07:55:34;;;;;;;5.73;5.13;;;;;;;1.77;83.21;97891.00;6162706;28;20236;-90
2023/04/08 07:58:36;;;;;;;6.27;5.37;;;;;;;2.18;82.90;97960.66;6118299;28;20304;-91
2023/04/08 08:01:38;;;;;;;6.87;6.17;;;;;;;1.33;82.66;97843.69;6115243;28;20654;-90
2023/04/08 08:04:40;;;;;;;6.83;6.10;;;;;;;0.68;82.96;97742.78;6116869;28;20284;-91
2023/04/08 08:07:42;;;;;;;6.43;5.77;;;;;;;1.99;83.10;97923.41;6116295;28;20240;-91
2023/04/08 08:10:44;;;;;;;5.80;5.23;;;;;;;2.04;82.87;97946.53;6098339;28;20229;-91
2023/04/08 08:13:47;;;;;;;6.67;5.80;;;;;;;0.49;82.88;97677.75;6119806;28;20323;-91
2023/04/08 08:16:49;;;;;;;5.90;5.30;;;;;;;1.72;82.29;97882.00;6135440;28;20293;-90
2023/04/08 08:19:51;;;;;;;5.97;5.37;;;;;;;2.09;83.14;97933.66;6119266;28;20276;-90
2023/04/08 08:22:53;;;;;;;5.23;4.73;;;;;;;1.48;81.63;97867.34;6105781;28;20237;-91
2023/04/08 08:26:02;;;;;;;5.60;5.10;;;;;;;1.90;82.65;97926.31;6117853;28;20281;-89
2023/04/08 08:29:05;;;;;;;5.40;4.63;;;;;;;2.19;82.67;97954.41;6122580;28;20232;-90
2023/04/08 08:32:07;;;;;;;4.93;4.37;;;;;;;2.14;81.90;97947.06;6103582;28;20243;-89
2023/04/08 08:35:09;;;;;;;5.10;4.57;;;;;;;2.19;82.50;97952.59;6103450;28;20247;-91
2023/04/08 08:38:12;;;;;;;6.77;4.67;;;;;;;2.03;82.53;97908.94;6111304;28;20228;-90
2023/04/08 08:41:14;;;;;;;5.00;4.50;;;;;;;2.47;81.91;97980.88;6103025;28;20316;-92
2023/04/08 08:44:17;;;;;;;5.37;4.87;;;;;;;0.80;83.00;97730.09;6130276;28;20760;-90
2023/04/08 08:47:19;;;;;;;5.53;4.87;;;;;;;0.91;82.38;97734.88;6126946;28;20607;-90
2023/04/08 08:50:21;;;;;;;5.27;4.77;;;;;;;1.52;82.20;97823.94;6111268;28;20233;-90
2023/04/08 08:53:30;;;;;;;4.93;4.37;;;;;;;2.34;82.72;97960.47;6118334;28;20239;-90
2023/04/08 08:56:35;;;;;;;5.53;5.03;;;;;;;2.44;82.63;97973.34;6103853;28;20698;-89
2023/04/08 08:59:38;;;;;;;4.73;4.33;;;;;;;2.40;82.58;97958.91;6145390;28;20233;-91
2023/04/08 09:02:40;;;;;;;5.40;4.90;;;;;;;2.48;81.87;97979.88;6134036;28;20240;-91
2023/04/08 09:06:00;;;;;;;5.10;4.60;;;;;;;2.26;82.01;97948.22;6119089;28;20690;-91
2023/04/08 09:09:05;;;;;;;4.60;4.20;;;;;;;2.24;81.43;97931.03;6117220;28;20817;-90
2023/04/08 09:12:07;;;;;;;5.83;5.27;;;;;;;2.78;81.42;98023.53;6133618;28;20588;-91
2023/04/08 09:15:10;;;;;;;5.10;4.60;;;;;;;2.10;80.96;97937.91;6118769;28;20664;-90
2023/04/08 09:18:22;;;;;;;5.90;5.30;;;;;;;2.35;81.47;97967.34;6133170;28;20357;-90
2023/04/08 09:21:25;;;;;;;5.13;4.63;;;;;;;1.89;82.20;97901.03;6117653;28;20718;-90
2023/04/08 09:24:29;;;;;;;4.90;4.50;;;;;;;2.19;81.40;97952.59;6113196;28;20383;-90
2023/04/08 09:27:35;;;;;;;5.80;5.30;;;;;;;2.35;81.32;97963.91;6133560;28;20368;-90
2023/04/08 09:30:37;;;;;;;5.43;4.93;;;;;;;2.89;81.10;98053.81;6133345;28;20718;-91
2023/04/08 09:33:39;;;;;;;6.40;5.80;;;;;;;2.13;81.52;97942.00;6114129;28;20237;-91
2023/04/08 09:36:43;;;;;;;6.20;5.60;;;;;;;2.53;82.08;97995.91;6149072;28;20300;-90
2023/04/08 09:39:45;;;;;;;6.20;5.60;;;;;;;3.01;81.37;98060.25;6130162;28;20253;-91
2023/04/08 09:42:52;;;;;;;4.63;4.23;;;;;;;2.67;81.01;98023.19;6125669;28;20736;-91
2023/04/08 09:45:56;;;;;;;5.37;4.80;;;;;;;0.80;80.51;97739.75;6116728;28;20243;-90
2023/04/08 09:49:11;;;;;;;5.80;5.20;;;;;;;2.96;80.80;98069.72;6132868;28;20248;-91
2023/04/08 09:52:39;;;;;;;5.10;4.60;;;;;;;2.96;80.75;98067.09;6129256;28;20771;-90
2023/04/08 09:55:44;;;;;;;5.57;5.07;;;;;;;2.99;80.78;98087.75;6126641;28;20596;-90
2023/04/08 09:58:58;;;;;;;5.87;5.27;;;;;;;2.59;81.38;98014.41;6116487;29;20237;-90
2023/04/08 10:02:05;;;;;;;5.63;5.13;;;;;;;1.33;81.22;97803.47;6111061;29;20248;-91
2023/04/08 10:05:11;;;;;;;6.20;4.67;;;;;;;3.06;80.74;98063.16;6115936;29;20361;-90
2023/04/08 10:08:14;;;;;;;5.17;4.70;;;;;;;2.79;80.46;98014.63;6109465;29;20590;-90
2023/04/08 10:11:16;;;;;;;5.03;4.53;;;;;;;3.10;80.54;98064.44;6115987;29;20241;-91
2023/04/08 10:14:20;;;;;;;4.57;4.17;;;;;;;2.64;79.73;97989.38;6099328;29;20276;-90
2023/04/08 10:17:28;;;;;;;3.90;3.60;;;;;;;2.89;80.12;98027.50;6101151;29;20316;-90
2023/04/08 10:20:33;;;;;;;4.50;4.10;;;;;;;3.17;79.50;98071.56;6100639;29;20243;-91
2023/04/08 10:23:58;;;;;;;4.97;3.93;;;;;;;2.30;79.99;97940.78;6112949;29;20233;-90
2023/04/08 10:27:03;;;;;;;4.77;4.20;;;;;;;2.57;79.24;97987.47;6129803;29;20242;-90
2023/04/08 10:30:30;;;;;;;4.17;3.80;;;;;;;2.66;80.07;97996.09;6099619;29;20234;-90
2023/04/08 10:33:36;;;;;;;4.57;4.17;;;;;;;2.56;79.61;97990.25;6098922;28;20305;-90
2023/04/08 10:36:41;;;;;;;4.50;4.10;;;;;;;2.46;79.54;97973.97;6116077;29;20226;-90
2023/04/08 10:39:48;;;;;;;4.87;4.37;;;;;;;2.72;80.10;98031.34;6100469;29;20233;-90
2023/04/08 10:42:57;;;;;;;4.73;4.23;;;;;;;2.60;80.28;97996.78;6115883;29;20237;-90
2023/04/08 10:46:00;;;;;;;4.63;4.23;;;;;;;2.07;80.54;97904.13;6100512;29;20235;-90
2023/04/08 10:49:02;;;;;;;5.33;4.83;;;;;;;1.19;79.08;97753.47;6114470;29;20241;-89
2023/04/08 10:52:08;;;;;;;4.40;4.00;;;;;;;2.90;79.78;98050.19;6116176;29;20245;-90
2023/04/08 10:55:10;;;;;;;5.07;4.57;;;;;;;2.48;79.76;97985.94;6109279;29;20265;-90
2023/04/08 10:58:12;;;;;;;4.47;4.07;;;;;;;2.78;79.14;98035.88;6130743;28;20394;-89
2023/04/08 11:01:15;;;;;;;6.03;4.97;;;;;;;3.15;79.59;98090.16;6130319;28;20734;-89
2023/04/08 11:04:18;;;;;;;5.13;4.60;;;;;;;2.45;79.48;97993.38;6147379;28;20234;-89
2023/04/08 11:07:20;;;;;;;8.63;5.73;;;;;;;2.63;78.72;98001.69;6115492;28;20256;-89
2023/04/08 11:10:22;;;;;;;6.43;5.40;;;;;;;3.11;78.72;98078.41;6131711;28;20233;-90
2023/04/08 11:13:24;;;;;;;6.53;5.53;;;;;;;2.57;78.58;98036.63;6091070;28;20234;-89
2023/04/08 11:16:28;;;;;;;7.90;6.07;;;;;;;2.06;78.08;97934.81;6130803;28;20705;-91
2023/04/08 11:19:30;;;;;;;7.70;6.20;;;;;;;1.75;78.42;97898.22;6115499;28;20336;-90
2023/04/08 11:22:33;;;;;;;7.23;5.93;;;;;;;2.82;78.88;98060.84;6115607;28;20236;-90
2023/04/08 11:25:35;;;;;;;7.23;6.27;;;;;;;3.16;79.09;98098.91;6155559;28;20241;-89
2023/04/08 11:28:37;;;;;;;8.27;7.23;;;;;;;3.14;79.41;98099.06;6163235;28;20248;-89
2023/04/08 11:31:42;;;;;;;10.43;7.20;;;;;;;3.17;79.77;98097.91;6163363;28;20244;-89
2023/04/08 11:34:46;;;;;;;8.33;7.13;;;;;;;1.66;79.22;97857.28;6154622;28;20266;-90
2023/04/08 11:37:48;;;;;;;9.30;7.43;;;;;;;2.15;79.90;97959.19;6117341;28;20239;-90
2023/04/08 11:40:58;;;;;;;7.93;6.90;;;;;;;2.45;79.59;97993.38;6147847;28;20242;-90
2023/04/08 11:44:02;;;;;;;9.50;7.90;;;;;;;2.64;80.04;98036.72;6146426;28;20321;-89
2023/04/08 11:47:04;;;;;;;8.70;6.97;;;;;;;2.89;80.03;98087.22;6130708;28;20630;-90
2023/04/08 11:50:07;;;;;;;9.17;7.17;;;;;;;3.09;79.75;98120.69;6131451;28;20274;-89
2023/04/08 11:53:24;;;;;;;11.30;8.43;;;;;;;2.22;80.64;98036.34;6130259;28;20393;-89
2023/04/08 11:56:29;;;;;;;9.23;7.60;;;;;;;2.25;80.72;98020.19;6122224;28;20778;-89
2023/04/08 11:59:31;;;;;;;11.40;8.77;;;;;;;2.24;81.28;98021.19;6123841;28;20245;-89
2023/04/08 12:02:33;;;;;;;13.87;8.80;;;;;;;2.20;81.47;98014.66;6130111;28;20599;-90
2023/04/08 12:05:35;;;;;;;11.70;9.23;;;;;;;2.57;81.94;98074.25;6130238;28;20293;-89
2023/04/08 12:08:37;;;;;;;8.93;7.27;;;;;;;2.72;81.52;98062.94;6106851;28;20237;-89
2023/04/08 12:11:39;;;;;;;8.27;6.13;;;;;;;2.88;80.65;98082.97;6114256;28;20245;-89
2023/04/08 12:14:41;;;;;;;8.83;6.43;;;;;;;2.01;79.31;97954.75;6130455;28;20780;-89
2023/04/08 12:17:44;;;;;;;10.00;7.17;;;;;;;2.97;78.69;98076.59;6145489;28;20312;-89
2023/04/08 12:20:46;;;;;;;7.87;6.27;;;;;;;2.91;79.00;98057.09;6145308;28;20377;-89
2023/04/08 12:23:48;;;;;;;8.60;7.10;;;;;;;2.88;77.98;98031.16;6091587;28;20234;-89
2023/04/08 12:26:50;;;;;;;8.30;6.17;;;;;;;2.14;78.04;97933.13;6126737;28;20297;-90
2023/04/08 12:29:52;;;;;;;7.23;6.10;;;;;;;2.74;78.22;98032.78;6113665;28;20241;-90
2023/04/08 12:32:54;;;;;;;8.60;6.80;;;;;;;2.97;77.84;98064.25;6113322;28;20709;-89
2023/04/08 12:35:58;;;;;;;8.53;6.27;;;;;;;2.73;78.18;98019.84;6121672;28;20242;-90
2023/04/08 12:39:00;;;;;;;7.60;5.53;;;;;;;3.41;77.70;98138.91;6121990;28;20247;-90
2023/04/08 12:42:02;;;;;;;11.43;7.50;;;;;;;2.74;78.25;98024.91;6130265;28;20600;-89
2023/04/08 12:45:05;;;;;;;11.20;8.63;;;;;;;2.90;78.21;98029.13;6129766;28;20690;-89
2023/04/08 12:48:07;;;;;;;12.50;9.00;;;;;;;2.87;78.78;98032.16;6115547;28;20218;-90
2023/04/08 12:51:10;;;;;;;11.73;9.30;;;;;;;2.69;79.32;98021.19;6129657;28;20316;-90
2023/04/08 12:54:12;;;;;;;12.10;8.70;;;;;;;2.20;79.73;97975.25;6113972;28;20246;-90
2023/04/08 12:57:15;;;;;;;15.33;9.97;;;;;;;2.39;80.30;97994.91;6121177;28;20320;-89
2023/04/08 13:00:18;;;;;;;15.20;11.13;;;;;;;2.60;80.51;98065.19;6123312;28;20242;-90
2023/04/08 13:03:20;;;;;;;14.83;10.40;;;;;;;0.84;80.49;97802.16;6122167;28;20718;-89
2023/04/08 13:06:22;;;;;;;13.83;10.27;;;;;;;2.44;80.91;98020.66;6133832;28;20225;-89
2023/04/08 13:09:24;;;;;;;12.60;10.10;;;;;;;2.90;81.36;98097.56;6114402;28;20227;-89
2023/04/08 13:12:26;;;;;;;14.00;9.40;;;;;;;1.81;81.00;97907.19;6132860;28;20229;-90
2023/04/08 13:15:28;;;;;;;15.13;10.13;;;;;;;1.51;80.83;97859.09;6131959;28;20236;-90
2023/04/08 13:18:30;;;;;;;15.67;10.10;;;;;;;2.99;80.85;98093.81;6133728;28;20238;-88
2023/04/08 13:21:32;;;;;;;13.73;9.83;;;;;;;2.54;80.45;98035.16;6133695;28;20238;-89
2023/04/08 13:24:34;;;;;;;12.90;9.40;;;;;;;2.62;80.16;98046.59;6116939;28;20237;-89
2023/04/08 13:27:36;;;;;;;13.57;9.40;;;;;;;3.04;79.73;98090.66;6134166;28;20242;-89
2023/04/08 13:30:38;;;;;;;14.53;9.40;;;;;;;2.64;80.22;98049.84;6116768;28;20309;-90
2023/04/08 13:33:41;;;;;;;12.20;9.50;;;;;;;1.47;79.78;97865.69;6129958;28;20227;-89
2023/04/08 13:36:43;;;;;;;13.50;10.10;;;;;;;2.61;80.35;98048.41;6124859;28;20248;-90
2023/04/08 13:39:45;;;;;;;13.57;10.47;;;;;;;2.92;80.29;98100.03;6132041;28;20640;-89
2023/04/08 13:42:47;;;;;;;14.13;10.10;;;;;;;2.84;80.52;98099.09;6133069;28;20307;-90
2023/04/08 13:45:49;;;;;;;14.30;10.43;;;;;;;2.36;80.70;98018.94;6132547;28;20373;-89
2023/04/08 13:48:51;;;;;;;14.00;10.53;;;;;;;2.53;80.73;98056.41;6116026;28;20244;-89
2023/04/08 13:51:54;;;;;;;15.83;11.57;;;;;;;2.48;80.96;98041.16;6132758;28;20324;-89
2023/04/08 13:54:56;;;;;;;15.70;10.90;;;;;;;2.43;81.23;98058.47;6116010;28;20421;-90
2023/04/08 13:57:58;;;;;;;17.43;11.40;;;;;;;3.10;82.17;98151.28;6132398;28;20329;-89
2023/04/08 14:01:00;;;;;;;17.27;11.97;;;;;;;2.39;81.09;98039.59;6130742;28;20731;-89
2023/04/08 14:04:02;;;;;;;15.07;11.63;;;;;;;2.02;81.57;97977.41;6100910;28;20632;-89
2023/04/08 14:07:04;;;;;;;15.07;10.80;;;;;;;2.56;81.43;98042.88;6123834;28;20722;-89
2023/04/08 14:10:07;;;;;;;15.50;11.73;;;;;;;3.41;80.95;98139.72;6131676;28;20233;-89
2023/04/08 14:13:09;;;;;;;14.17;10.43;;;;;;;3.18;80.27;98087.19;6131628;28;20241;-89
2023/04/08 14:16:11;;;;;;;14.60;10.30;;;;;;;2.95;79.83;98045.19;6132339;28;20357;-89
2023/04/08 14:19:13;;;;;;;13.23;9.93;;;;;;;2.50;79.17;97989.19;6108571;29;20260;-88
2023/04/08 14:22:16;;;;;;;12.70;9.80;;;;;;;2.82;78.95;98060.84;6131616;28;20773;-89
2023/04/08 14:25:18;;;;;;;14.13;8.93;;;;;;;3.17;78.46;98116.34;6131902;28;20410;-90
2023/04/08 14:28:20;;;;;;;12.00;8.77;;;;;;;2.58;78.73;98025.91;6146133;28;20255;-89